sensor_id;sensor_type;location;lat;lon;timestamp;pressure;altitude;pressure_sealevel;temperature;humidity
61645;BME280;47553;52.428;13.382;2022-10-31T00:00:08;101288.84;;;11.94;100.00
61645;BME280;47553;52.428;13.382;2022-10-31T00:02:10;101289.97;;;11.90;100.00
61645;BME280;47553;52.428;13.382;2022-10-31T00:04:11;101289.03;;;11.91;100.00
61645;BME280;47553;52.428;13.382;2022-10-31T00:06:13;101286.28;;;11.92;100.00
61645;BME280;47553;52.428;13.382;2022-10-31T00:08:15;101292.66;;;11.90;100.00
61645;BME280;47553;52.428;13.382;2022-10-31T00:10:17;101289.03;;;11.91;100.00
61645;BME280;47553;52.428;13.382;2022-10-31T00:12:20;101292.66;;;11.90;100.00
61645;BME280;47553;52.428;13.382;2022-10-31T00:14:21;101292.66;;;11.90;100.00
61645;BME280;47553;52.428;13.382;2022-10-31T00:16:24;101298.00;;;11.90;100.00
61645;BME280;47553;52.428;13.382;2022-10-31T00:18:26;101300.75;;;11.88;100.00
61645;BME280;47553;52.428;13.382;2022-10-31T00:20:27;101297.38;;;11.85;100.00
61645;BME280;47553;52.428;13.382;2022-10-31T00:22:30;101302.81;;;11.83;100.00
61645;BME280;47553;52.428;13.382;2022-10-31T00:24:32;101306.50;;;11.81;100.00
61645;BME280;47553;52.428;13.382;2022-10-31T00:26:33;101302.19;;;11.78;100.00
61645;BME280;47553;52.428;13.382;2022-10-31T00:28:36;101305.56;;;11.82;100.00
61645;BME280;47553;52.428;13.382;2022-10-31T00:30:38;101305.13;;;11.73;100.00
61645;BME280;47553;52.428;13.382;2022-10-31T00:32:40;101302.44;;;11.73;100.00
61645;BME280;47553;52.428;13.382;2022-10-31T00:34:41;101306.94;;;11.73;100.00
61645;BME280;47553;52.428;13.382;2022-10-31T00:36:43;101307.63;;;11.77;100.00
61645;BME280;47553;52.428;13.382;2022-10-31T00:38:45;101312.09;;;11.76;100.00
61645;BME280;47553;52.428;13.382;2022-10-31T00:40:47;101313.47;;;11.67;100.00
61645;BME280;47553;52.428;13.382;2022-10-31T00:42:49;101317.78;;;11.70;100.00
61645;BME280;47553;52.428;13.382;2022-10-31T00:44:52;101313.31;;;11.70;100.00
61645;BME280;47553;52.428;13.382;2022-10-31T00:46:53;101318.66;;;11.70;100.00
61645;BME280;47553;52.428;13.382;2022-10-31T00:48:55;101314.69;;;11.78;100.00
61645;BME280;47553;52.428;13.382;2022-10-31T00:50:57;101317.53;;;11.75;100.00
61645;BME280;47553;52.428;13.382;2022-10-31T00:53:01;101320.28;;;11.73;100.00
61645;BME280;47553;52.428;13.382;2022-10-31T00:55:02;101320.38;;;11.71;100.00
61645;BME280;47553;52.428;13.382;2022-10-31T00:57:04;101326.03;;;11.65;100.00
61645;BME280;47553;52.428;13.382;2022-10-31T00:59:06;101327.19;;;11.60;100.00
61645;BME280;47553;52.428;13.382;2022-10-31T01:01:09;101329.78;;;11.61;100.00
61645;BME280;47553;52.428;13.382;2022-10-31T01:03:10;101335.00;;;11.64;100.00
61645;BME280;47553;52.428;13.382;2022-10-31T01:05:12;101336.72;;;11.65;100.00
61645;BME280;47553;52.428;13.382;2022-10-31T01:07:14;101336.56;;;11.68;100.00
61645;BME280;47553;52.428;13.382;2022-10-31T01:09:15;101328.84;;;11.62;100.00
61645;BME280;47553;52.428;13.382;2022-10-31T01:11:19;101333.31;;;11.62;100.00
61645;BME280;47553;52.428;13.382;2022-10-31T01:13:21;101334.50;;;11.56;100.00
61645;BME280;47553;52.428;13.382;2022-10-31T01:15:23;101330.97;;;11.56;100.00
61645;BME280;47553;52.428;13.382;2022-10-31T01:17:26;101341.81;;;11.53;100.00
61645;BME280;47553;52.428;13.382;2022-10-31T01:19:27;101332.94;;;11.52;100.00
61645;BME280;47553;52.428;13.382;2022-10-31T01:21:33;101337.50;;;11.50;100.00
61645;BME280;47553;52.428;13.382;2022-10-31T01:23:35;101333.19;;;11.48;100.00
61645;BME280;47553;52.428;13.382;2022-10-31T01:25:37;101338.53;;;11.48;100.00
61645;BME280;47553;52.428;13.382;2022-10-31T01:27:39;101347.16;;;11.53;100.00
61645;BME280;47553;52.428;13.382;2022-10-31T01:29:40;101324.94;;;11.52;100.00
61645;BME280;47553;52.428;13.382;2022-10-31T01:31:42;101330.28;;;11.52;100.00
61645;BME280;47553;52.428;13.382;2022-10-31T01:33:47;101327.53;;;11.54;100.00
61645;BME280;47553;52.428;13.382;2022-10-31T01:35:48;101340.88;;;11.54;100.00
61645;BME280;47553;52.428;13.382;2022-10-31T01:37:50;101333.72;;;11.54;100.00
61645;BME280;47553;52.428;13.382;2022-10-31T01:39:51;101342.84;;;11.50;100.00
61645;BME280;47553;52.428;13.382;2022-10-31T01:41:54;101342.78;;;11.52;100.00
61645;BME280;47553;52.428;13.382;2022-10-31T01:43:57;101333.91;;;11.51;100.00
61645;BME280;47553;52.428;13.382;2022-10-31T01:45:59;101335.78;;;11.49;100.00
61645;BME280;47553;52.428;13.382;2022-10-31T01:48:01;101330.13;;;11.55;100.00
61645;BME280;47553;52.428;13.382;2022-10-31T01:50:11;101335.78;;;11.49;100.00
61645;BME280;47553;52.428;13.382;2022-10-31T01:52:18;101328.09;;;11.43;100.00
61645;BME280;47553;52.428;13.382;2022-10-31T01:54:22;101326.75;;;11.34;100.00
61645;BME280;47553;52.428;13.382;2022-10-31T01:56:25;101340.03;;;11.36;100.00
61645;BME280;47553;52.428;13.382;2022-10-31T01:58:28;101343.81;;;11.32;100.00
61645;BME280;47553;52.428;13.382;2022-10-31T02:00:32;101347.88;;;11.39;100.00
61645;BME280;47553;52.428;13.382;2022-10-31T02:02:34;101338.47;;;11.32;100.00
61645;BME280;47553;52.428;13.382;2022-10-31T02:04:36;101343.50;;;11.38;100.00
61645;BME280;47553;52.428;13.382;2022-10-31T02:06:44;101342.16;;;11.29;100.00
61645;BME280;47553;52.428;13.382;2022-10-31T02:08:48;101349.00;;;11.35;100.00
61645;BME280;47553;52.428;13.382;2022-10-31T02:10:49;101341.94;;;11.34;100.00
61645;BME280;47553;52.428;13.382;2022-10-31T02:12:56;101347.97;;;11.37;100.00
61645;BME280;47553;52.428;13.382;2022-10-31T02:15:00;101346.09;;;11.39;100.00
61645;BME280;47553;52.428;13.382;2022-10-31T02:17:02;101341.94;;;11.34;100.00
61645;BME280;47553;52.428;13.382;2022-10-31T02:19:05;101352.59;;;11.34;100.00
61645;BME280;47553;52.428;13.382;2022-10-31T02:21:14;101343.81;;;11.32;100.00
61645;BME280;47553;52.428;13.382;2022-10-31T02:26:11;101342.47;;;11.23;100.00
61645;BME280;47553;52.428;13.382;2022-10-31T02:28:40;101344.28;;;11.23;100.00
61645;BME280;47553;52.428;13.382;2022-10-31T02:31:00;101338.88;;;11.24;100.00
61645;BME280;47553;52.428;13.382;2022-10-31T02:33:15;101349.63;;;11.23;100.00
61645;BME280;47553;52.428;13.382;2022-10-31T02:35:31;101336.34;;;11.21;100.00
61645;BME280;47553;52.428;13.382;2022-10-31T02:37:39;101332.03;;;11.19;100.00
61645;BME280;47553;52.428;13.382;2022-10-31T02:39:50;101338.94;;;11.23;100.00
61645;BME280;47553;52.428;13.382;2022-10-31T02:42:02;101350.72;;;11.19;100.00
61645;BME280;47553;52.428;13.382;2022-10-31T02:44:08;101348.22;;;11.16;100.00
61645;BME280;47553;52.428;13.382;2022-10-31T02:46:15;101351.03;;;11.13;100.00
61645;BME280;47553;52.428;13.382;2022-10-31T02:48:23;101356.06;;;11.19;100.00
61645;BME280;47553;52.428;13.382;2022-10-31T02:50:28;101355.03;;;11.21;100.00
61645;BME280;47553;52.428;13.382;2022-10-31T02:52:33;101357.00;;;11.18;100.00
61645;BME280;47553;52.428;13.382;2022-10-31T02:54:36;101354.56;;;11.13;100.00
61645;BME280;47553;52.428;13.382;2022-10-31T02:56:37;101362.34;;;11.18;100.00
61645;BME280;47553;52.428;13.382;2022-10-31T02:58:42;101362.50;;;11.15;100.00
61645;BME280;47553;52.428;13.382;2022-10-31T03:00:59;101363.13;;;11.20;100.00
61645;BME280;47553;52.428;13.382;2022-10-31T03:03:12;101370.28;;;11.19;100.00
61645;BME280;47553;52.428;13.382;2022-10-31T03:05:26;101360.78;;;11.14;100.00
61645;BME280;47553;52.428;13.382;2022-10-31T03:07:31;101364.94;;;11.19;100.00
61645;BME280;47553;52.428;13.382;2022-10-31T03:09:42;101364.06;;;11.19;100.00
61645;BME280;47553;52.428;13.382;2022-10-31T03:11:54;101371.16;;;11.20;100.00
61645;BME280;47553;52.428;13.382;2022-10-31T03:14:06;101366.81;;;11.17;100.00
61645;BME280;47553;52.428;13.382;2022-10-31T03:16:15;101373.03;;;11.18;100.00
61645;BME280;47553;52.428;13.382;2022-10-31T03:18:21;101368.88;;;11.12;100.00
61645;BME280;47553;52.428;13.382;2022-10-31T03:20:30;101377.66;;;11.14;100.00
61645;BME280;47553;52.428;13.382;2022-10-31T03:22:35;101376.94;;;11.11;100.00
61645;BME280;47553;52.428;13.382;2022-10-31T03:24:40;101381.66;;;11.23;100.00
61645;BME280;47553;52.428;13.382;2022-10-31T03:26:45;101381.97;;;11.17;100.00
61645;BME280;47553;52.428;13.382;2022-10-31T03:28:52;101384.56;;;11.18;100.00
61645;BME280;47553;52.428;13.382;2022-10-31T03:30:56;101387.47;;;11.14;100.00
61645;BME280;47553;52.428;13.382;2022-10-31T03:32:59;101385.75;;;11.13;100.00
61645;BME280;47553;52.428;13.382;2022-10-31T03:35:08;101394.84;;;11.08;100.00
61645;BME280;47553;52.428;13.382;2022-10-31T03:37:14;101392.19;;;11.08;100.00
61645;BME280;47553;52.428;13.382;2022-10-31T03:39:20;101394.06;;;11.06;100.00
61645;BME280;47553;52.428;13.382;2022-10-31T03:41:25;101393.13;;;11.07;100.00
61645;BME280;47553;52.428;13.382;2022-10-31T03:43:33;101397.38;;;11.12;100.00
61645;BME280;47553;52.428;13.382;2022-10-31T03:45:41;101393.81;;;11.11;100.00
61645;BME280;47553;52.428;13.382;2022-10-31T03:47:44;101401.47;;;11.19;100.00
61645;BME280;47553;52.428;13.382;2022-10-31T03:49:46;101403.66;;;11.11;100.00
61645;BME280;47553;52.428;13.382;2022-10-31T03:51:51;101412.59;;;11.09;100.00
61645;BME280;47553;52.428;13.382;2022-10-31T03:53:59;101408.81;;;11.14;100.00
61645;BME280;47553;52.428;13.382;2022-10-31T03:56:09;101407.66;;;11.19;100.00
61645;BME280;47553;52.428;13.382;2022-10-31T03:58:19;101412.28;;;11.16;100.00
61645;BME280;47553;52.428;13.382;2022-10-31T04:00:22;101409.53;;;11.17;100.00
61645;BME280;47553;52.428;13.382;2022-10-31T04:02:28;101411.97;;;11.22;100.00
61645;BME280;47553;52.428;13.382;2022-10-31T04:04:36;101408.81;;;11.14;100.00
61645;BME280;47553;52.428;13.382;2022-10-31T04:06:39;101417.78;;;11.13;100.00
61645;BME280;47553;52.428;13.382;2022-10-31T04:08:47;101416.34;;;11.05;100.00
61645;BME280;47553;52.428;13.382;2022-10-31T04:10:51;101414.63;;;11.04;100.00
61645;BME280;47553;52.428;13.382;2022-10-31T04:12:58;101418.53;;;10.97;100.00
61645;BME280;47553;52.428;13.382;2022-10-31T04:15:06;101409.44;;;11.01;100.00
61645;BME280;47553;52.428;13.382;2022-10-31T04:17:14;101412.56;;;10.92;100.00
61645;BME280;47553;52.428;13.382;2022-10-31T04:19:19;101409.91;;;10.92;100.00
61645;BME280;47553;52.428;13.382;2022-10-31T04:21:26;101412.63;;;10.91;100.00
61645;BME280;47553;52.428;13.382;2022-10-31T04:23:28;101415.06;;;10.95;100.00
61645;BME280;47553;52.428;13.382;2022-10-31T04:25:31;101422.28;;;10.93;100.00
61645;BME280;47553;52.428;13.382;2022-10-31T04:27:33;101425.75;;;10.95;100.00
61645;BME280;47553;52.428;13.382;2022-10-31T04:29:34;101416.97;;;10.93;100.00
61645;BME280;47553;52.428;13.382;2022-10-31T04:31:36;101419.31;;;10.99;100.00
61645;BME280;47553;52.428;13.382;2022-10-31T04:33:37;101424.81;;;10.96;100.00
61645;BME280;47553;52.428;13.382;2022-10-31T04:35:39;101427.63;;;10.93;100.00
61645;BME280;47553;52.428;13.382;2022-10-31T04:37:41;101423.25;;;10.92;100.00
61645;BME280;47553;52.428;13.382;2022-10-31T04:39:51;101424.19;;;10.91;100.00
61645;BME280;47553;52.428;13.382;2022-10-31T04:41:54;101434.84;;;10.91;100.00
61645;BME280;47553;52.428;13.382;2022-10-31T04:43:56;101431.59;;;10.85;100.00
61645;BME280;47553;52.428;13.382;2022-10-31T04:45:57;101435.13;;;10.85;100.00
61645;BME280;47553;52.428;13.382;2022-10-31T04:47:59;101429.94;;;10.82;100.00
61645;BME280;47553;52.428;13.382;2022-10-31T04:50:01;101434.25;;;10.85;100.00
61645;BME280;47553;52.428;13.382;2022-10-31T04:52:03;101432.53;;;10.84;100.00
61645;BME280;47553;52.428;13.382;2022-10-31T04:54:05;101434.31;;;10.83;100.00
61645;BME280;47553;52.428;13.382;2022-10-31T04:56:06;101436.84;;;10.86;100.00
61645;BME280;47553;52.428;13.382;2022-10-31T04:58:10;101430.56;;;10.87;100.00
61645;BME280;47553;52.428;13.382;2022-10-31T05:00:13;101435.91;;;10.87;100.00
61645;BME280;47553;52.428;13.382;2022-10-31T05:02:15;101435.91;;;10.87;100.00
61645;BME280;47553;52.428;13.382;2022-10-31T05:04:19;101437.06;;;10.82;100.00
61645;BME280;47553;52.428;13.382;2022-10-31T05:06:20;101445.94;;;10.82;100.00
61645;BME280;47553;52.428;13.382;2022-10-31T05:08:22;101441.25;;;10.87;100.00
61645;BME280;47553;52.428;13.382;2022-10-31T05:10:26;101439.13;;;10.75;100.00
61645;BME280;47553;52.428;13.382;2022-10-31T05:12:28;101447.03;;;10.78;100.00
61645;BME280;47553;52.428;13.382;2022-10-31T05:14:31;101439.88;;;10.78;100.00
61645;BME280;47553;52.428;13.382;2022-10-31T05:16:32;101446.09;;;10.79;100.00
61645;BME280;47553;52.428;13.382;2022-10-31T05:18:34;101449.41;;;10.84;100.00
61645;BME280;47553;52.428;13.382;2022-10-31T05:20:35;101442.34;;;10.83;100.00
61645;BME280;47553;52.428;13.382;2022-10-31T05:22:37;101444.84;;;10.86;100.00
61645;BME280;47553;52.428;13.382;2022-10-31T05:24:38;101447.66;;;10.83;100.00
61645;BME280;47553;52.428;13.382;2022-10-31T05:26:40;101455.28;;;10.72;100.00
61645;BME280;47553;52.428;13.382;2022-10-31T05:28:42;101452.69;;;10.70;100.00
61645;BME280;47553;52.428;13.382;2022-10-31T05:30:45;101453.41;;;10.74;100.00
61645;BME280;47553;52.428;13.382;2022-10-31T05:32:48;101457.94;;;10.72;100.00
61645;BME280;47553;52.428;13.382;2022-10-31T05:34:49;101457.69;;;10.78;100.00
61645;BME280;47553;52.428;13.382;2022-10-31T05:36:51;101458.16;;;10.67;100.00
61645;BME280;47553;52.428;13.382;2022-10-31T05:38:53;101457.88;;;10.73;100.00
61645;BME280;47553;52.428;13.382;2022-10-31T05:40:54;101458.91;;;10.71;100.00
61645;BME280;47553;52.428;13.382;2022-10-31T05:43:01;101453.63;;;10.69;100.00
61645;BME280;47553;52.428;13.382;2022-10-31T05:45:03;101456.50;;;10.65;100.00
61645;BME280;47553;52.428;13.382;2022-10-31T05:47:06;101458.25;;;10.66;100.00
61645;BME280;47553;52.428;13.382;2022-10-31T05:49:08;101454.22;;;10.57;100.00
61645;BME280;47553;52.428;13.382;2022-10-31T05:51:09;101459.47;;;10.59;100.00
61645;BME280;47553;52.428;13.382;2022-10-31T05:53:11;101462.13;;;10.59;100.00
61645;BME280;47553;52.428;13.382;2022-10-31T05:55:13;101461.91;;;10.63;100.00
61645;BME280;47553;52.428;13.382;2022-10-31T05:57:14;101460.13;;;10.64;100.00
61645;BME280;47553;52.428;13.382;2022-10-31T05:59:16;101468.13;;;10.64;100.00
61645;BME280;47553;52.428;13.382;2022-10-31T06:01:20;101454.78;;;10.64;100.00
61645;BME280;47553;52.428;13.382;2022-10-31T06:03:24;101463.59;;;10.66;100.00
61645;BME280;47553;52.428;13.382;2022-10-31T06:05:26;101462.63;;;10.67;100.00
61645;BME280;47553;52.428;13.382;2022-10-31T06:07:32;101467.97;;;10.67;100.00
61645;BME280;47553;52.428;13.382;2022-10-31T06:09:33;101468.78;;;10.69;100.00
61645;BME280;47553;52.428;13.382;2022-10-31T06:11:35;101465.47;;;10.64;100.00
61645;BME280;47553;52.428;13.382;2022-10-31T06:13:36;101464.50;;;10.65;100.00
61645;BME280;47553;52.428;13.382;2022-10-31T06:15:38;101467.97;;;10.67;100.00
61645;BME280;47553;52.428;13.382;2022-10-31T06:17:39;101470.16;;;10.77;100.00
61645;BME280;47553;52.428;13.382;2022-10-31T06:19:42;101478.22;;;10.76;100.00
61645;BME280;47553;52.428;13.382;2022-10-31T06:21:44;101471.84;;;10.80;100.00
61645;BME280;47553;52.428;13.382;2022-10-31T06:23:47;101474.56;;;10.78;100.00
61645;BME280;47553;52.428;13.382;2022-10-31T06:25:51;101472.56;;;10.84;100.00
61645;BME280;47553;52.428;13.382;2022-10-31T06:27:52;101477.81;;;10.85;100.00
61645;BME280;47553;52.428;13.382;2022-10-31T06:29:54;101474.09;;;10.89;100.00
61645;BME280;47553;52.428;13.382;2022-10-31T06:31:55;101484.78;;;10.89;100.00
61645;BME280;47553;52.428;13.382;2022-10-31T06:33:57;101484.63;;;10.92;100.00
61645;BME280;47553;52.428;13.382;2022-10-31T06:36:00;101491.69;;;10.93;100.00
61645;BME280;47553;52.428;13.382;2022-10-31T06:38:02;101495.84;;;11.18;100.00
61645;BME280;47553;52.428;13.382;2022-10-31T06:40:05;101501.03;;;11.21;100.00
61645;BME280;47553;52.428;13.382;2022-10-31T06:42:06;101513.28;;;11.25;100.00
61645;BME280;47553;52.428;13.382;2022-10-31T06:44:08;101500.63;;;11.47;100.00
61645;BME280;47553;52.428;13.382;2022-10-31T06:46:10;101501.16;;;11.36;100.00
61645;BME280;47553;52.428;13.382;2022-10-31T06:48:11;101500.72;;;11.27;100.00
61645;BME280;47553;52.428;13.382;2022-10-31T06:50:22;101504.19;;;11.29;100.00
61645;BME280;47553;52.428;13.382;2022-10-31T06:52:25;101496.53;;;11.40;100.00
61645;BME280;47553;52.428;13.382;2022-10-31T06:54:27;101511.59;;;11.41;100.00
61645;BME280;47553;52.428;13.382;2022-10-31T06:56:29;101501.41;;;11.49;100.00
61645;BME280;47553;52.428;13.382;2022-10-31T06:58:30;101497.63;;;11.53;100.00
61645;BME280;47553;52.428;13.382;2022-10-31T07:00:32;101499.53;;;11.51;100.00
61645;BME280;47553;52.428;13.382;2022-10-31T07:02:34;101497.31;;;11.59;100.00
61645;BME280;47553;52.428;13.382;2022-10-31T07:04:35;101506.22;;;11.60;100.00
61645;BME280;47553;52.428;13.382;2022-10-31T07:06:37;101512.41;;;11.60;100.00
61645;BME280;47553;52.428;13.382;2022-10-31T07:08:40;101512.94;;;11.68;100.00
61645;BME280;47553;52.428;13.382;2022-10-31T07:10:42;101519.22;;;11.67;100.00
61645;BME280;47553;52.428;13.382;2022-10-31T07:12:44;101519.22;;;11.85;100.00
61645;BME280;47553;52.428;13.382;2022-10-31T07:14:45;101515.38;;;11.90;100.00
61645;BME280;47553;52.428;13.382;2022-10-31T07:16:48;101513.25;;;11.97;100.00
61645;BME280;47553;52.428;13.382;2022-10-31T07:18:50;101520.47;;;11.95;100.00
61645;BME280;47553;52.428;13.382;2022-10-31T07:20:52;101518.59;;;11.97;100.00
61645;BME280;47553;52.428;13.382;2022-10-31T07:22:54;101520.38;;;12.14;100.00
61645;BME280;47553;52.428;13.382;2022-10-31T07:24:57;101521.81;;;12.21;100.00
61645;BME280;47553;52.428;13.382;2022-10-31T07:27:02;101527.72;;;12.27;100.00
61645;BME280;47553;52.428;13.382;2022-10-31T07:29:03;101519.78;;;12.43;100.00
61645;BME280;47553;52.428;13.382;2022-10-31T07:31:05;101524.72;;;12.51;100.00
61645;BME280;47553;52.428;13.382;2022-10-31T07:33:08;101529.75;;;12.57;100.00
61645;BME280;47553;52.428;13.382;2022-10-31T07:35:11;101525.78;;;12.64;100.00
61645;BME280;47553;52.428;13.382;2022-10-31T07:37:13;101526.84;;;12.77;100.00
61645;BME280;47553;52.428;13.382;2022-10-31T07:39:15;101534.81;;;12.94;100.00
61645;BME280;47553;52.428;13.382;2022-10-31T07:41:20;101531.34;;;13.08;100.00
61645;BME280;47553;52.428;13.382;2022-10-31T07:43:22;101537.25;;;13.15;100.00
61645;BME280;47553;52.428;13.382;2022-10-31T07:45:23;101531.66;;;13.19;100.00
61645;BME280;47553;52.428;13.382;2022-10-31T07:47:28;101523.78;;;13.32;100.00
61645;BME280;47553;52.428;13.382;2022-10-31T07:49:30;101537.59;;;13.40;100.00
61645;BME280;47553;52.428;13.382;2022-10-31T07:51:31;101540.66;;;13.50;100.00
61645;BME280;47553;52.428;13.382;2022-10-31T07:53:33;101533.81;;;13.44;100.00
61645;BME280;47553;52.428;13.382;2022-10-31T07:55:35;101547.66;;;13.52;100.00
61645;BME280;47553;52.428;13.382;2022-10-31T07:57:38;101542.63;;;13.62;100.00
61645;BME280;47553;52.428;13.382;2022-10-31T07:59:40;101544.47;;;13.76;100.00
61645;BME280;47553;52.428;13.382;2022-10-31T08:01:41;101544.28;;;13.94;100.00
61645;BME280;47553;52.428;13.382;2022-10-31T08:03:43;101544.88;;;14.00;100.00
61645;BME280;47553;52.428;13.382;2022-10-31T08:05:45;101544.25;;;14.10;100.00
61645;BME280;47553;52.428;13.382;2022-10-31T08:07:46;101543.66;;;14.05;100.00
61645;BME280;47553;52.428;13.382;2022-10-31T08:09:48;101542.88;;;14.03;100.00
61645;BME280;47553;52.428;13.382;2022-10-31T08:11:50;101543.06;;;14.00;100.00
61645;BME280;47553;52.428;13.382;2022-10-31T08:13:53;101555.03;;;13.94;100.00
61645;BME280;47553;52.428;13.382;2022-10-31T08:15:54;101545.16;;;13.95;100.00
61645;BME280;47553;52.428;13.382;2022-10-31T08:17:56;101557.22;;;13.88;100.00
61645;BME280;47553;52.428;13.382;2022-10-31T08:19:58;101555.13;;;13.93;100.00
61645;BME280;47553;52.428;13.382;2022-10-31T08:22:00;101551.28;;;13.97;100.00
61645;BME280;47553;52.428;13.382;2022-10-31T08:24:01;101550.84;;;14.05;100.00
61645;BME280;47553;52.428;13.382;2022-10-31T08:26:03;101557.06;;;14.05;100.00
61645;BME280;47553;52.428;13.382;2022-10-31T08:28:05;101560.34;;;14.10;100.00
61645;BME280;47553;52.428;13.382;2022-10-31T08:30:09;101560.34;;;14.10;100.00
61645;BME280;47553;52.428;13.382;2022-10-31T08:32:11;101564.38;;;14.17;100.00
61645;BME280;47553;52.428;13.382;2022-10-31T08:34:13;101567.06;;;14.17;100.00
61645;BME280;47553;52.428;13.382;2022-10-31T08:36:15;101569.66;;;14.19;100.00
61645;BME280;47553;52.428;13.382;2022-10-31T08:38:16;101563.59;;;14.15;100.00
61645;BME280;47553;52.428;13.382;2022-10-31T08:40:21;101567.25;;;14.14;100.00
61645;BME280;47553;52.428;13.382;2022-10-31T08:42:23;101565.97;;;14.06;100.00
61645;BME280;47553;52.428;13.382;2022-10-31T08:44:24;101564.53;;;14.00;100.00
61645;BME280;47553;52.428;13.382;2022-10-31T08:46:28;101565.25;;;13.88;100.00
61645;BME280;47553;52.428;13.382;2022-10-31T08:48:29;101564.53;;;14.00;100.00
61645;BME280;47553;52.428;13.382;2022-10-31T08:50:33;101552.38;;;14.09;100.00
61645;BME280;47553;52.428;13.382;2022-10-31T08:52:34;101550.97;;;14.17;100.00
61645;BME280;47553;52.428;13.382;2022-10-31T08:54:56;101551.34;;;14.25;100.00
61645;BME280;47553;52.428;13.382;2022-10-31T08:56:58;101561.91;;;14.29;100.00
61645;BME280;47553;52.428;13.382;2022-10-31T08:59:02;101554.91;;;14.26;100.00
61645;BME280;47553;52.428;13.382;2022-10-31T09:01:05;101569.38;;;14.23;100.00
61645;BME280;47553;52.428;13.382;2022-10-31T09:03:11;101569.19;;;14.26;100.00
61645;BME280;47553;52.428;13.382;2022-10-31T09:05:13;101567.09;;;14.46;100.00
61645;BME280;47553;52.428;13.382;2022-10-31T09:07:14;101573.31;;;14.62;100.00
61645;BME280;47553;52.428;13.382;2022-10-31T09:09:23;101573.31;;;14.62;100.00
61645;BME280;47553;52.428;13.382;2022-10-31T09:11:25;101583.69;;;14.68;100.00
61645;BME280;47553;52.428;13.382;2022-10-31T09:13:29;101574.50;;;14.56;100.00
61645;BME280;47553;52.428;13.382;2022-10-31T09:15:30;101577.56;;;14.50;100.00
61645;BME280;47553;52.428;13.382;2022-10-31T09:17:35;101584.75;;;14.50;100.00
61645;BME280;47553;52.428;13.382;2022-10-31T09:19:38;101586.19;;;14.55;100.00
61645;BME280;47553;52.428;13.382;2022-10-31T09:21:39;101578.34;;;14.52;100.00
61645;BME280;47553;52.428;13.382;2022-10-31T09:23:41;101579.56;;;14.47;100.00
61645;BME280;47553;52.428;13.382;2022-10-31T09:25:43;101581.09;;;14.51;100.00
61645;BME280;47553;52.428;13.382;2022-10-31T09:27:50;101588.09;;;14.53;100.00
61645;BME280;47553;52.428;13.382;2022-10-31T09:29:52;101580.16;;;14.52;100.00
61645;BME280;47553;52.428;13.382;2022-10-31T09:31:55;101582.66;;;14.55;100.00
61645;BME280;47553;52.428;13.382;2022-10-31T09:33:57;101584.06;;;14.62;100.00
61645;BME280;47553;52.428;13.382;2022-10-31T09:36:00;101585.22;;;14.72;100.00
61645;BME280;47553;52.428;13.382;2022-10-31T09:38:03;101578.69;;;14.76;100.00
61645;BME280;47553;52.428;13.382;2022-10-31T09:40:05;101588.19;;;14.82;100.00
61645;BME280;47553;52.428;13.382;2022-10-31T09:42:28;101597.88;;;14.84;100.00
61645;BME280;47553;52.428;13.382;2022-10-31T09:44:40;101598.06;;;14.81;100.00
61645;BME280;47553;52.428;13.382;2022-10-31T09:46:51;101595.78;;;14.89;100.00
61645;BME280;47553;52.428;13.382;2022-10-31T09:49:10;101596.53;;;14.92;100.00
61645;BME280;47553;52.428;13.382;2022-10-31T09:51:21;101592.31;;;14.87;100.00
61645;BME280;47553;52.428;13.382;2022-10-31T09:53:29;101600.75;;;14.81;100.00
61645;BME280;47553;52.428;13.382;2022-10-31T09:55:36;101602.88;;;14.76;100.00
61645;BME280;47553;52.428;13.382;2022-10-31T09:57:39;101595.09;;;14.72;100.00
61645;BME280;47553;52.428;13.382;2022-10-31T09:59:44;101607.28;;;14.63;100.00
61645;BME280;47553;52.428;13.382;2022-10-31T10:01:49;101594.63;;;14.49;100.00
61645;BME280;47553;52.428;13.382;2022-10-31T10:03:54;101596.53;;;14.47;100.00
61645;BME280;47553;52.428;13.382;2022-10-31T10:06:11;101600.09;;;14.48;100.00
61645;BME280;47553;52.428;13.382;2022-10-31T10:08:18;101599.31;;;14.46;100.00
61645;BME280;47553;52.428;13.382;2022-10-31T10:10:26;101594.69;;;14.34;100.00
61645;BME280;47553;52.428;13.382;2022-10-31T10:12:40;101594.72;;;14.48;100.00
61645;BME280;47553;52.428;13.382;2022-10-31T10:14:54;101582.41;;;14.60;100.00
61645;BME280;47553;52.428;13.382;2022-10-31T10:17:09;101583.88;;;14.65;100.00
61645;BME280;47553;52.428;13.382;2022-10-31T10:19:27;101573.31;;;14.62;100.00
61645;BME280;47553;52.428;13.382;2022-10-31T10:21:39;101578.69;;;14.62;100.00
61645;BME280;47553;52.428;13.382;2022-10-31T10:23:54;101579.47;;;14.64;100.00
61645;BME280;47553;52.428;13.382;2022-10-31T10:26:06;101582.63;;;14.71;100.00
61645;BME280;47553;52.428;13.382;2022-10-31T10:28:19;101577.66;;;14.79;100.00
61645;BME280;47553;52.428;13.382;2022-10-31T10:30:28;101574.75;;;14.82;100.00
61645;BME280;47553;52.428;13.382;2022-10-31T10:32:36;101570.25;;;14.82;100.00
61645;BME280;47553;52.428;13.382;2022-10-31T10:34:44;101576.09;;;14.89;100.00